Time;durP1;ratioP1;P1;durP2;ratioP2;P2;SDS_P1;SDS_P2;PMS_P1;PMS_P2;Temp;Humidity;BMP_temperature;BMP_pressure;BME280_temperature;BME280_humidity;BME280_pressure;Samples;Min_cycle;Max_cycle;Signal;HPM_P1;HPM_P2
2022/09/21 00:02:46;;;;;;;6.10;3.20;;;10.50;97.90;;;;;;20994716;28;20281;-75
2022/09/21 00:12:48;;;;;;;8.17;3.10;;;10.20;97.90;;;;;;20994648;28;20257;-74
2022/09/21 00:22:50;;;;;;;7.83;3.20;;;10.30;98.00;;;;;;20942680;28;20249;-74
2022/09/21 00:32:52;;;;;;;4.97;2.97;;;10.20;97.90;;;;;;20909244;28;20608;-75
2022/09/21 00:43:09;;;;;;;3.73;2.60;;;10.00;97.40;;;;;;20910506;28;20242;-76
2022/09/21 00:53:11;;;;;;;4.97;2.67;;;10.00;97.80;;;;;;20915394;28;20211;-76
2022/09/21 01:03:12;;;;;;;9.53;3.10;;;9.90;98.00;;;;;;21005908;28;20228;-76
2022/09/21 01:13:42;;;;;;;19.57;4.80;;;10.10;97.70;;;;;;21007274;28;20677;-76
2022/09/21 01:24:11;;;;;;;11.83;4.37;;;10.10;98.10;;;;;;21006547;28;20289;-76
2022/09/21 01:34:24;;;;;;;9.20;5.80;;;10.10;98.10;;;;;;21004479;28;20207;-76
2022/09/21 01:44:32;;;;;;;11.43;7.20;;;10.00;98.10;;;;;;21004832;28;20239;-77
2022/09/21 01:54:41;;;;;;;34.80;6.40;;;10.00;98.60;;;;;;21004337;28;20691;-76
2022/09/21 02:04:43;;;;;;;44.53;6.90;;;10.00;98.80;;;;;;21002404;28;20636;-76
2022/09/21 02:14:45;;;;;;;34.37;7.30;;;10.00;99.00;;;;;;21002510;28;20207;-74
2022/09/21 02:24:56;;;;;;;17.57;8.30;;;9.90;99.80;;;;;;20939727;28;20229;-73
2022/09/21 02:35:03;;;;;;;14.43;5.73;;;9.90;99.40;;;;;;20916968;28;20287;-76
2022/09/21 02:45:21;;;;;;;37.83;5.80;;;9.70;99.10;;;;;;20917748;28;20238;-75
2022/09/21 02:55:23;;;;;;;11.20;5.80;;;9.60;99.40;;;;;;20933555;28;20214;-75
2022/09/21 03:05:27;;;;;;;23.40;4.37;;;9.50;99.70;;;;;;20998609;28;20233;-75
2022/09/21 03:15:29;;;;;;;63.77;4.60;;;9.50;99.90;;;;;;20996833;28;20206;-75
2022/09/21 03:25:31;;;;;;;9.50;3.70;;;9.40;99.50;;;;;;20997209;28;20258;-74
2022/09/21 03:35:33;;;;;;;12.93;3.37;;;9.50;99.60;;;;;;20996092;28;20237;-73
2022/09/21 03:54:51;;;;;;;43.17;3.80;;;9.50;99.30;;;;;;21152248;27;20534;-72
2022/09/21 04:04:53;;;;;;;23.47;3.80;;;9.50;99.70;;;;;;21067172;28;20606;-74
2022/09/21 04:14:55;;;;;;;4.10;3.60;;;9.40;99.50;;;;;;21066211;28;20215;-73
2022/09/21 04:24:57;;;;;;;7.53;4.83;;;9.40;99.50;;;;;;20988781;28;20222;-73
2022/09/21 04:34:59;;;;;;;43.67;4.23;;;9.30;99.60;;;;;;20977941;28;20665;-72
2022/09/21 04:45:00;;;;;;;19.43;3.80;;;9.30;99.30;;;;;;20978175;28;20208;-73
2022/09/21 04:55:05;;;;;;;16.47;3.40;;;9.10;99.60;;;;;;20908858;28;20201;-72
2022/09/21 05:05:07;;;;;;;15.87;3.83;;;9.20;99.40;;;;;;20929673;28;20219;-72
2022/09/21 05:15:10;;;;;;;6.33;4.10;;;9.20;99.50;;;;;;20922324;28;20257;-72
2022/09/21 05:25:11;;;;;;;18.97;5.20;;;9.00;99.30;;;;;;20922352;28;20208;-73
2022/09/21 05:35:25;;;;;;;15.47;8.43;;;9.00;99.40;;;;;;20920180;28;20213;-74
2022/09/21 05:45:27;;;;;;;26.53;10.93;;;9.00;99.80;;;;;;20919532;28;20237;-73
2022/09/21 05:55:59;;;;;;;20.60;7.17;;;9.20;99.80;;;;;;20919438;28;20201;-73
2022/09/21 06:06:02;;;;;;;11.47;6.13;;;9.20;99.70;;;;;;20918158;28;20248;-73
2022/09/21 06:16:04;;;;;;;20.67;4.60;;;9.20;99.80;;;;;;20915192;28;20256;-73
2022/09/21 06:26:05;;;;;;;23.60;4.63;;;9.20;99.60;;;;;;20912368;28;20692;-74
2022/09/21 06:36:10;;;;;;;19.43;6.70;;;9.10;99.60;;;;;;20896781;28;20217;-74
2022/09/21 06:46:14;;;;;;;52.90;6.60;;;9.20;99.70;;;;;;20914477;28;20237;-73
2022/09/21 06:56:17;;;;;;;44.10;6.23;;;9.20;99.70;;;;;;20913305;28;20206;-73
2022/09/21 07:06:19;;;;;;;22.00;6.83;;;9.20;99.70;;;;;;20913806;28;20278;-72
2022/09/21 07:16:22;;;;;;;27.27;11.70;;;9.30;99.70;;;;;;20912209;28;20253;-73
2022/09/21 07:26:23;;;;;;;35.73;15.27;;;9.30;99.90;;;;;;20912462;28;20259;-77
2022/09/21 07:36:25;;;;;;;31.17;13.80;;;9.50;99.60;;;;;;20911775;28;20729;-72
2022/09/21 07:46:27;;;;;;;25.37;12.33;;;9.50;99.90;;;;;;20893415;28;20298;-71
2022/09/21 07:56:29;;;;;;;18.77;9.23;;;9.90;99.70;;;;;;20909720;28;20205;-73
2022/09/21 08:06:32;;;;;;;11.87;7.63;;;10.10;99.10;;;;;;20911557;28;20357;-72
2022/09/21 08:16:36;;;;;;;13.53;7.80;;;10.30;99.10;;;;;;20911599;28;20306;-73
2022/09/21 08:26:40;;;;;;;10.33;7.30;;;10.50;99.10;;;;;;20852812;28;20246;-72
2022/09/21 08:36:41;;;;;;;10.57;7.07;;;10.80;98.80;;;;;;20834819;28;20201;-73
2022/09/21 08:46:46;;;;;;;13.13;7.27;;;10.90;98.60;;;;;;20841862;28;20695;-72
2022/09/21 08:56:49;;;;;;;12.43;7.63;;;11.20;98.50;;;;;;20869564;28;20621;-71
2022/09/21 09:07:30;;;;;;;9.03;6.57;;;11.30;98.80;;;;;;20923894;28;20228;-72
2022/09/21 09:17:38;;;;;;;11.03;7.03;;;11.50;98.40;;;;;;20923790;28;20264;-71
2022/09/21 09:27:43;;;;;;;10.07;6.53;;;12.00;97.80;;;;;;20923459;28;20703;-74
2022/09/21 09:37:46;;;;;;;9.73;6.57;;;12.10;98.00;;;;;;20920780;28;20209;-73
2022/09/21 09:48:19;;;;;;;7.87;5.93;;;12.60;97.10;;;;;;20919429;28;20243;-72
2022/09/21 09:58:21;;;;;;;8.77;6.23;;;12.80;96.60;;;;;;20920623;28;20205;-74
2022/09/21 10:08:43;;;;;;;8.23;5.63;;;12.90;96.80;;;;;;20920151;28;20230;-72
2022/09/21 10:18:51;;;;;;;6.43;4.70;;;13.20;96.40;;;;;;20919649;28;20207;-72
2022/09/21 10:29:01;;;;;;;6.03;4.57;;;13.50;96.00;;;;;;20848347;28;20239;-72
2022/09/21 10:39:16;;;;;;;6.90;4.37;;;13.70;95.40;;;;;;20833707;28;20247;-73
2022/09/21 10:49:27;;;;;;;7.67;4.30;;;14.00;95.20;;;;;;20833971;28;20252;-73
2022/09/21 10:59:34;;;;;;;6.17;3.90;;;14.20;94.80;;;;;;20882298;28;20261;-74
2022/09/21 11:09:44;;;;;;;4.17;2.47;;;14.40;94.50;;;;;;20915957;28;20227;-72
2022/09/21 11:19:54;;;;;;;3.80;2.30;;;14.60;93.80;;;;;;20914074;28;20644;-71
2022/09/21 11:30:15;;;;;;;3.30;1.97;;;14.90;93.20;;;;;;20912507;28;20733;-75
2022/09/21 11:40:29;;;;;;;3.63;2.10;;;15.10;92.50;;;;;;20912960;28;20200;-77
2022/09/21 11:51:08;;;;;;;2.47;1.50;;;15.60;90.80;;;;;;20913645;28;20297;-76
2022/09/21 12:01:35;;;;;;;2.07;1.50;;;15.80;90.60;;;;;;20912139;28;20264;-74
2022/09/21 12:12:01;;;;;;;1.40;1.30;;;16.10;89.40;;;;;;20921190;28;20236;-76
2022/09/21 12:22:12;;;;;;;1.50;1.30;;;16.60;86.90;;;;;;20922704;28;20220;-75
2022/09/21 12:32:21;;;;;;;1.20;1.10;;;16.80;84.40;;;;;;20840119;28;20243;-74
2022/09/21 12:42:47;;;;;;;1.57;1.40;;;16.90;80.10;;;;;;20842704;28;20267;-73
2022/09/21 12:52:50;;;;;;;3.33;2.13;;;17.00;77.60;;;;;;20843002;28;20311;-71
2022/09/21 13:03:19;;;;;;;2.07;1.40;;;17.30;73.00;;;;;;20920744;28;20211;-74
2022/09/21 13:13:50;;;;;;;1.87;1.10;;;17.30;72.90;;;;;;20924841;28;20258;-80
2022/09/21 13:23:57;;;;;;;4.60;3.20;;;17.40;70.60;;;;;;20925547;28;20204;-78
2022/09/21 13:34:20;;;;;;;3.07;2.10;;;17.30;68.00;;;;;;20924898;28;20239;-78
2022/09/21 13:44:42;;;;;;;2.07;1.33;;;17.20;66.30;;;;;;20902342;28;20239;-77
2022/09/21 13:54:47;;;;;;;3.43;1.40;;;17.20;65.40;;;;;;20961292;28;20302;-76
2022/09/21 14:04:50;;;;;;;1.60;1.40;;;17.10;64.50;;;;;;20958942;28;20213;-75
2022/09/21 14:15:18;;;;;;;2.10;1.90;;;17.20;63.60;;;;;;20962539;28;20236;-78
2022/09/21 14:25:26;;;;;;;1.40;1.30;;;17.70;63.10;;;;;;20946439;28;20743;-74
2022/09/21 14:35:40;;;;;;;2.93;1.20;;;18.90;61.60;;;;;;20954001;28;20240;-73
2022/09/21 14:46:10;;;;;;;2.97;2.30;;;18.70;61.10;;;;;;20927596;28;20596;-73
2022/09/21 14:56:33;;;;;;;1.53;1.20;;;17.90;61.60;;;;;;20915370;28;20523;-73
2022/09/21 15:17:24;;;;;;;2.10;1.20;;;17.60;61.90;;;;;;20914679;28;20609;-74
2022/09/21 15:27:34;;;;;;;2.03;1.30;;;16.70;63.00;;;;;;20913416;28;20239;-73
2022/09/21 15:37:38;;;;;;;1.30;1.20;;;16.70;63.70;;;;;;20913360;28;20218;-73
2022/09/21 15:47:41;;;;;;;1.43;1.30;;;16.40;63.30;;;;;;20911153;28;20245;-73
2022/09/21 15:57:43;;;;;;;1.40;1.20;;;16.30;62.10;;;;;;20895828;28;20255;-74
2022/09/21 16:07:45;;;;;;;2.20;1.40;;;16.30;62.10;;;;;;20828447;28;20237;-74
2022/09/21 16:17:57;;;;;;;3.17;1.40;;;16.30;62.80;;;;;;20828887;28;20716;-74
2022/09/21 16:28:04;;;;;;;2.53;1.30;;;16.20;62.90;;;;;;20828639;28;20288;-73
2022/09/21 16:38:09;;;;;;;3.57;2.20;;;16.10;63.80;;;;;;20828694;28;20725;-74
2022/09/21 16:48:12;;;;;;;3.47;2.30;;;16.40;65.00;;;;;;20828034;28;20240;-73
2022/09/21 16:58:13;;;;;;;4.73;2.63;;;15.90;65.60;;;;;;20875617;28;20219;-74
2022/09/21 17:08:15;;;;;;;5.90;3.13;;;15.80;66.30;;;;;;20924420;28;20760;-74
2022/09/21 17:18:19;;;;;;;10.00;4.10;;;15.50;67.10;;;;;;20924282;28;21129;-73
2022/09/21 17:28:25;;;;;;;9.90;6.00;;;15.20;68.40;;;;;;20923567;28;20286;-73
2022/09/21 17:38:27;;;;;;;8.00;5.73;;;15.00;69.70;;;;;;20922987;28;20219;-73
2022/09/21 17:48:30;;;;;;;9.43;4.90;;;14.80;71.10;;;;;;20921714;28;20301;-73
2022/09/21 17:58:56;;;;;;;11.00;7.20;;;14.40;72.40;;;;;;20903713;28;20205;-71
2022/09/21 18:09:00;;;;;;;8.23;4.60;;;14.30;73.60;;;;;;20845536;28;20233;-74
2022/09/21 18:19:20;;;;;;;13.90;5.67;;;14.00;74.90;;;;;;20916237;28;20231;-74
2022/09/21 18:29:30;;;;;;;7.63;3.90;;;13.70;76.40;;;;;;20915944;28;20238;-73
2022/09/21 18:39:48;;;;;;;10.50;4.57;;;13.30;79.00;;;;;;20896557;28;20207;-73
2022/09/21 18:50:20;;;;;;;8.60;5.90;;;13.20;79.60;;;;;;20833593;28;20245;-74
2022/09/21 19:00:29;;;;;;;42.10;20.37;;;13.20;81.20;;;;;;20889987;28;20215;-70
2022/09/21 19:10:36;;;;;;;17.63;10.07;;;12.90;82.20;;;;;;20908313;28;20240;-69
2022/09/21 19:20:55;;;;;;;9.30;6.40;;;12.70;83.50;;;;;;20912429;28;20203;-68
2022/09/21 19:31:10;;;;;;;9.37;5.73;;;12.50;84.50;;;;;;20911981;28;20287;-68
2022/09/21 19:41:23;;;;;;;8.20;5.70;;;12.20;86.80;;;;;;20911141;28;20684;-68
2022/09/21 19:51:44;;;;;;;12.93;7.63;;;12.20;87.50;;;;;;20910886;28;20247;-69
2022/09/21 20:02:00;;;;;;;20.93;8.77;;;12.00;88.50;;;;;;20862635;28;20209;-70
2022/09/21 20:12:17;;;;;;;8.53;5.67;;;12.00;89.60;;;;;;20824555;28;20235;-70
2022/09/21 20:22:37;;;;;;;8.57;5.30;;;11.80;90.10;;;;;;20827272;28;20210;-72
2022/09/21 20:32:43;;;;;;;8.83;4.50;;;11.70;90.60;;;;;;20833872;28;20860;-69
2022/09/21 20:42:45;;;;;;;8.10;4.17;;;11.50;91.00;;;;;;20842001;28;20538;-69
2022/09/21 20:52:47;;;;;;;10.43;4.53;;;11.40;91.30;;;;;;20841345;28;20242;-71
2022/09/21 21:02:49;;;;;;;10.23;4.47;;;11.20;91.50;;;;;;20917601;28;20209;-72
2022/09/21 21:12:51;;;;;;;13.10;5.40;;;11.20;92.10;;;;;;20921612;28;20239;-69
2022/09/21 21:22:53;;;;;;;13.67;5.03;;;11.00;92.10;;;;;;20921025;28;20213;-71
2022/09/21 21:32:55;;;;;;;6.47;4.10;;;11.00;92.10;;;;;;20922123;28;20239;-71
2022/09/21 21:42:56;;;;;;;9.87;4.63;;;10.90;92.40;;;;;;20921830;28;20652;-71
2022/09/21 21:52:59;;;;;;;14.40;4.87;;;10.70;92.70;;;;;;20921015;28;20305;-74
2022/09/21 22:03:01;;;;;;;8.20;4.47;;;10.70;92.90;;;;;;20878784;28;20727;-69
2022/09/21 22:13:05;;;;;;;9.90;4.80;;;10.60;92.90;;;;;;20834830;28;20286;-70
2022/09/21 22:23:07;;;;;;;8.17;4.70;;;10.40;93.10;;;;;;20895433;28;20689;-71
2022/09/21 22:33:09;;;;;;;8.63;4.03;;;10.40;93.40;;;;;;20915662;28;20822;-71
2022/09/21 22:43:11;;;;;;;7.80;3.80;;;10.30;93.50;;;;;;20917233;28;20211;-72
2022/09/21 22:53:12;;;;;;;5.07;3.50;;;10.30;93.70;;;;;;20915783;28;20243;-71
2022/09/21 23:03:15;;;;;;;5.93;3.47;;;10.10;93.70;;;;;;20916026;28;20265;-70
2022/09/21 23:13:16;;;;;;;4.97;3.07;;;10.10;93.70;;;;;;20914985;28;20311;-69
2022/09/21 23:23:18;;;;;;;5.00;3.20;;;10.00;93.70;;;;;;20914449;28;20207;-71
2022/09/21 23:33:20;;;;;;;4.97;3.30;;;10.00;93.70;;;;;;20914263;28;20242;-70
2022/09/21 23:43:22;;;;;;;4.37;3.33;;;9.80;94.30;;;;;;20913375;28;20669;-69
2022/09/21 23:53:26;;;;;;;7.97;4.00;;;9.80;94.60;;;;;;20912604;28;20243;-70
